sensor_id;sensor_type;location;lat;lon;timestamp;P1;durP1;ratioP1;P2;durP2;ratioP2
10550;SDS011;5324;50.684;3.862;2023-10-09T00:00:23;8.63;;;6.80;;
10550;SDS011;5324;50.684;3.862;2023-10-09T00:03:05;8.77;;;6.03;;
10550;SDS011;5324;50.684;3.862;2023-10-09T00:05:31;8.70;;;6.10;;
10550;SDS011;5324;50.684;3.862;2023-10-09T00:08:19;9.70;;;6.72;;
10550;SDS011;5324;50.684;3.862;2023-10-09T00:11:11;10.53;;;6.57;;
10550;SDS011;5324;50.684;3.862;2023-10-09T00:13:45;10.38;;;6.07;;
10550;SDS011;5324;50.684;3.862;2023-10-09T00:16:15;9.75;;;6.32;;
10550;SDS011;5324;50.684;3.862;2023-10-09T00:18:41;8.88;;;6.43;;
10550;SDS011;5324;50.684;3.862;2023-10-09T00:21:17;9.73;;;6.25;;
10550;SDS011;5324;50.684;3.862;2023-10-09T00:23:47;8.57;;;6.65;;
10550;SDS011;5324;50.684;3.862;2023-10-09T00:26:24;10.98;;;7.28;;
10550;SDS011;5324;50.684;3.862;2023-10-09T00:28:50;10.20;;;6.97;;
10550;SDS011;5324;50.684;3.862;2023-10-09T00:31:19;9.80;;;6.95;;
10550;SDS011;5324;50.684;3.862;2023-10-09T00:33:55;10.93;;;7.13;;
10550;SDS011;5324;50.684;3.862;2023-10-09T00:36:21;8.23;;;6.15;;
10550;SDS011;5324;50.684;3.862;2023-10-09T00:38:53;8.23;;;6.85;;
10550;SDS011;5324;50.684;3.862;2023-10-09T00:41:20;9.97;;;6.80;;
10550;SDS011;5324;50.684;3.862;2023-10-09T00:43:47;11.05;;;7.20;;
10550;SDS011;5324;50.684;3.862;2023-10-09T00:46:18;10.43;;;7.25;;
10550;SDS011;5324;50.684;3.862;2023-10-09T00:48:45;12.15;;;7.20;;
10550;SDS011;5324;50.684;3.862;2023-10-09T00:51:12;10.43;;;7.07;;
10550;SDS011;5324;50.684;3.862;2023-10-09T00:53:43;9.25;;;6.38;;
10550;SDS011;5324;50.684;3.862;2023-10-09T00:56:10;11.75;;;7.78;;
10550;SDS011;5324;50.684;3.862;2023-10-09T00:58:53;10.13;;;6.85;;
10550;SDS011;5324;50.684;3.862;2023-10-09T01:01:31;9.43;;;6.70;;
10550;SDS011;5324;50.684;3.862;2023-10-09T01:04:03;9.82;;;6.70;;
10550;SDS011;5324;50.684;3.862;2023-10-09T01:06:39;9.82;;;6.50;;
10550;SDS011;5324;50.684;3.862;2023-10-09T01:09:15;10.10;;;6.85;;
10550;SDS011;5324;50.684;3.862;2023-10-09T01:11:48;8.35;;;6.45;;
10550;SDS011;5324;50.684;3.862;2023-10-09T01:14:28;10.50;;;6.78;;
10550;SDS011;5324;50.684;3.862;2023-10-09T01:16:56;10.20;;;6.50;;
10550;SDS011;5324;50.684;3.862;2023-10-09T01:19:22;9.85;;;6.55;;
10550;SDS011;5324;50.684;3.862;2023-10-09T01:21:53;12.65;;;7.68;;
10550;SDS011;5324;50.684;3.862;2023-10-09T01:24:19;9.90;;;6.85;;
10550;SDS011;5324;50.684;3.862;2023-10-09T01:26:47;11.05;;;6.85;;
10550;SDS011;5324;50.684;3.862;2023-10-09T01:34:31;10.88;;;7.75;;
10550;SDS011;5324;50.684;3.862;2023-10-09T01:37:07;9.77;;;7.63;;
10550;SDS011;5324;50.684;3.862;2023-10-09T01:39:49;10.68;;;7.30;;
10550;SDS011;5324;50.684;3.862;2023-10-09T01:42:17;9.70;;;6.93;;
10550;SDS011;5324;50.684;3.862;2023-10-09T01:45:09;11.17;;;7.23;;
10550;SDS011;5324;50.684;3.862;2023-10-09T01:47:44;8.93;;;6.85;;
10550;SDS011;5324;50.684;3.862;2023-10-09T01:50:22;12.60;;;7.53;;
10550;SDS011;5324;50.684;3.862;2023-10-09T01:53:00;12.15;;;7.75;;
10550;SDS011;5324;50.684;3.862;2023-10-09T01:55:28;10.95;;;7.75;;
10550;SDS011;5324;50.684;3.862;2023-10-09T01:57:59;9.32;;;7.45;;
10550;SDS011;5324;50.684;3.862;2023-10-09T02:00:30;10.70;;;7.30;;
10550;SDS011;5324;50.684;3.862;2023-10-09T02:02:57;8.88;;;7.22;;
10550;SDS011;5324;50.684;3.862;2023-10-09T02:05:28;10.65;;;7.10;;
10550;SDS011;5324;50.684;3.862;2023-10-09T02:07:58;10.10;;;7.20;;
10550;SDS011;5324;50.684;3.862;2023-10-09T02:10:27;13.77;;;7.10;;
10550;SDS011;5324;50.684;3.862;2023-10-09T02:12:53;11.33;;;7.50;;
10550;SDS011;5324;50.684;3.862;2023-10-09T02:15:30;10.83;;;7.70;;
10550;SDS011;5324;50.684;3.862;2023-10-09T02:18:12;11.43;;;8.32;;
10550;SDS011;5324;50.684;3.862;2023-10-09T02:21:04;11.63;;;7.63;;
10550;SDS011;5324;50.684;3.862;2023-10-09T02:23:31;10.80;;;6.97;;
10550;SDS011;5324;50.684;3.862;2023-10-09T02:26:10;7.90;;;6.90;;
10550;SDS011;5324;50.684;3.862;2023-10-09T02:29:05;11.10;;;7.60;;
10550;SDS011;5324;50.684;3.862;2023-10-09T02:31:34;9.82;;;7.78;;
10550;SDS011;5324;50.684;3.862;2023-10-09T02:34:06;12.53;;;7.83;;
10550;SDS011;5324;50.684;3.862;2023-10-09T02:36:39;10.47;;;7.13;;
10550;SDS011;5324;50.684;3.862;2023-10-09T02:39:15;12.83;;;7.30;;
10550;SDS011;5324;50.684;3.862;2023-10-09T02:41:54;11.00;;;7.63;;
10550;SDS011;5324;50.684;3.862;2023-10-09T02:44:23;12.23;;;7.43;;
10550;SDS011;5324;50.684;3.862;2023-10-09T02:46:57;11.55;;;8.10;;
10550;SDS011;5324;50.684;3.862;2023-10-09T02:49:25;10.67;;;7.70;;
10550;SDS011;5324;50.684;3.862;2023-10-09T02:51:52;10.63;;;7.30;;
10550;SDS011;5324;50.684;3.862;2023-10-09T02:54:18;10.95;;;7.75;;
10550;SDS011;5324;50.684;3.862;2023-10-09T02:56:59;10.33;;;6.97;;
10550;SDS011;5324;50.684;3.862;2023-10-09T02:59:41;8.80;;;7.30;;
10550;SDS011;5324;50.684;3.862;2023-10-09T03:02:09;10.73;;;7.37;;
10550;SDS011;5324;50.684;3.862;2023-10-09T03:04:36;10.57;;;7.90;;
10550;SDS011;5324;50.684;3.862;2023-10-09T03:07:04;11.73;;;7.60;;
10550;SDS011;5324;50.684;3.862;2023-10-09T03:09:31;12.07;;;7.75;;
10550;SDS011;5324;50.684;3.862;2023-10-09T03:12:00;11.63;;;7.00;;
10550;SDS011;5324;50.684;3.862;2023-10-09T03:14:37;10.77;;;7.60;;
10550;SDS011;5324;50.684;3.862;2023-10-09T03:17:04;10.17;;;7.30;;
10550;SDS011;5324;50.684;3.862;2023-10-09T03:19:36;10.50;;;7.47;;
10550;SDS011;5324;50.684;3.862;2023-10-09T03:22:06;11.03;;;7.73;;
10550;SDS011;5324;50.684;3.862;2023-10-09T03:24:35;10.23;;;7.18;;
10550;SDS011;5324;50.684;3.862;2023-10-09T03:27:02;10.88;;;7.88;;
10550;SDS011;5324;50.684;3.862;2023-10-09T03:29:28;10.07;;;7.15;;
10550;SDS011;5324;50.684;3.862;2023-10-09T03:31:54;11.77;;;8.07;;
10550;SDS011;5324;50.684;3.862;2023-10-09T03:34:21;9.80;;;6.97;;
10550;SDS011;5324;50.684;3.862;2023-10-09T03:36:49;13.27;;;7.97;;
10550;SDS011;5324;50.684;3.862;2023-10-09T03:39:24;13.57;;;7.93;;
10550;SDS011;5324;50.684;3.862;2023-10-09T03:42:03;12.33;;;7.27;;
10550;SDS011;5324;50.684;3.862;2023-10-09T03:44:33;13.00;;;7.03;;
10550;SDS011;5324;50.684;3.862;2023-10-09T03:47:01;8.83;;;6.73;;
10550;SDS011;5324;50.684;3.862;2023-10-09T03:49:27;10.33;;;7.30;;
10550;SDS011;5324;50.684;3.862;2023-10-09T03:51:54;10.20;;;7.23;;
10550;SDS011;5324;50.684;3.862;2023-10-09T03:54:20;10.33;;;6.63;;
10550;SDS011;5324;50.684;3.862;2023-10-09T03:56:47;9.53;;;7.60;;
10550;SDS011;5324;50.684;3.862;2023-10-09T03:59:20;9.67;;;7.13;;
10550;SDS011;5324;50.684;3.862;2023-10-09T04:01:49;11.13;;;7.63;;
10550;SDS011;5324;50.684;3.862;2023-10-09T04:04:18;11.97;;;7.83;;
10550;SDS011;5324;50.684;3.862;2023-10-09T04:06:48;10.10;;;7.20;;
10550;SDS011;5324;50.684;3.862;2023-10-09T04:09:16;13.33;;;7.83;;
10550;SDS011;5324;50.684;3.862;2023-10-09T04:11:50;10.87;;;8.37;;
10550;SDS011;5324;50.684;3.862;2023-10-09T04:14:42;11.77;;;8.27;;
10550;SDS011;5324;50.684;3.862;2023-10-09T04:17:14;10.83;;;7.73;;
10550;SDS011;5324;50.684;3.862;2023-10-09T04:19:49;11.07;;;7.20;;
10550;SDS011;5324;50.684;3.862;2023-10-09T04:22:34;9.50;;;7.63;;
10550;SDS011;5324;50.684;3.862;2023-10-09T04:25:05;11.77;;;7.47;;
10550;SDS011;5324;50.684;3.862;2023-10-09T04:27:43;12.90;;;7.80;;
10550;SDS011;5324;50.684;3.862;2023-10-09T04:30:12;11.83;;;7.27;;
10550;SDS011;5324;50.684;3.862;2023-10-09T04:32:41;11.40;;;7.40;;
10550;SDS011;5324;50.684;3.862;2023-10-09T04:35:10;10.83;;;8.30;;
10550;SDS011;5324;50.684;3.862;2023-10-09T04:38:02;12.53;;;7.77;;
10550;SDS011;5324;50.684;3.862;2023-10-09T04:40:31;10.03;;;7.40;;
10550;SDS011;5324;50.684;3.862;2023-10-09T04:43:13;9.77;;;7.20;;
10550;SDS011;5324;50.684;3.862;2023-10-09T04:45:46;11.37;;;7.33;;
10550;SDS011;5324;50.684;3.862;2023-10-09T04:48:30;9.40;;;6.77;;
10550;SDS011;5324;50.684;3.862;2023-10-09T04:51:03;9.77;;;6.67;;
10550;SDS011;5324;50.684;3.862;2023-10-09T04:53:58;8.43;;;6.67;;
10550;SDS011;5324;50.684;3.862;2023-10-09T04:56:45;11.63;;;7.37;;
10550;SDS011;5324;50.684;3.862;2023-10-09T04:59:17;10.60;;;7.47;;
10550;SDS011;5324;50.684;3.862;2023-10-09T05:01:44;10.00;;;6.73;;
10550;SDS011;5324;50.684;3.862;2023-10-09T05:04:23;10.40;;;7.30;;
10550;SDS011;5324;50.684;3.862;2023-10-09T05:07:00;7.90;;;6.47;;
10550;SDS011;5324;50.684;3.862;2023-10-09T05:09:47;10.23;;;7.80;;
10550;SDS011;5324;50.684;3.862;2023-10-09T05:12:39;11.00;;;7.57;;
10550;SDS011;5324;50.684;3.862;2023-10-09T05:15:11;10.57;;;7.67;;
10550;SDS011;5324;50.684;3.862;2023-10-09T05:17:38;9.93;;;6.83;;
10550;SDS011;5324;50.684;3.862;2023-10-09T05:20:07;10.53;;;7.83;;
10550;SDS011;5324;50.684;3.862;2023-10-09T05:22:52;8.90;;;6.90;;
10550;SDS011;5324;50.684;3.862;2023-10-09T05:25:44;10.50;;;7.30;;
10550;SDS011;5324;50.684;3.862;2023-10-09T05:28:20;12.83;;;7.83;;
10550;SDS011;5324;50.684;3.862;2023-10-09T05:31:13;11.13;;;8.10;;
10550;SDS011;5324;50.684;3.862;2023-10-09T05:33:59;13.07;;;7.40;;
10550;SDS011;5324;50.684;3.862;2023-10-09T05:36:26;11.83;;;8.07;;
10550;SDS011;5324;50.684;3.862;2023-10-09T05:38:52;9.90;;;7.73;;
10550;SDS011;5324;50.684;3.862;2023-10-09T05:41:42;10.83;;;7.33;;
10550;SDS011;5324;50.684;3.862;2023-10-09T05:44:24;10.40;;;7.43;;
10550;SDS011;5324;50.684;3.862;2023-10-09T05:47:09;13.43;;;8.60;;
10550;SDS011;5324;50.684;3.862;2023-10-09T05:49:54;11.47;;;8.00;;
10550;SDS011;5324;50.684;3.862;2023-10-09T05:52:40;11.63;;;8.47;;
10550;SDS011;5324;50.684;3.862;2023-10-09T05:55:06;10.10;;;7.83;;
10550;SDS011;5324;50.684;3.862;2023-10-09T05:57:52;12.30;;;9.50;;
10550;SDS011;5324;50.684;3.862;2023-10-09T06:00:24;12.20;;;8.57;;
10550;SDS011;5324;50.684;3.862;2023-10-09T06:03:09;11.63;;;8.43;;
10550;SDS011;5324;50.684;3.862;2023-10-09T06:05:44;12.40;;;8.30;;
10550;SDS011;5324;50.684;3.862;2023-10-09T06:08:17;14.47;;;9.17;;
10550;SDS011;5324;50.684;3.862;2023-10-09T06:10:50;12.70;;;8.50;;
10550;SDS011;5324;50.684;3.862;2023-10-09T06:13:30;12.87;;;9.23;;
10550;SDS011;5324;50.684;3.862;2023-10-09T06:16:03;10.80;;;8.00;;
10550;SDS011;5324;50.684;3.862;2023-10-09T06:18:45;11.20;;;9.07;;
10550;SDS011;5324;50.684;3.862;2023-10-09T06:21:19;15.23;;;8.93;;
10550;SDS011;5324;50.684;3.862;2023-10-09T06:24:05;12.37;;;9.03;;
10550;SDS011;5324;50.684;3.862;2023-10-09T06:26:39;12.77;;;9.33;;
10550;SDS011;5324;50.684;3.862;2023-10-09T06:29:29;11.10;;;8.57;;
10550;SDS011;5324;50.684;3.862;2023-10-09T06:32:08;11.33;;;8.60;;
10550;SDS011;5324;50.684;3.862;2023-10-09T06:34:47;12.07;;;8.87;;
10550;SDS011;5324;50.684;3.862;2023-10-09T06:37:41;14.43;;;8.67;;
10550;SDS011;5324;50.684;3.862;2023-10-09T06:40:25;11.90;;;9.27;;
10550;SDS011;5324;50.684;3.862;2023-10-09T06:43:04;13.27;;;9.20;;
10550;SDS011;5324;50.684;3.862;2023-10-09T06:45:41;13.10;;;8.17;;
10550;SDS011;5324;50.684;3.862;2023-10-09T06:48:13;12.40;;;8.83;;
10550;SDS011;5324;50.684;3.862;2023-10-09T06:51:02;12.63;;;9.27;;
10550;SDS011;5324;50.684;3.862;2023-10-09T06:53:48;13.27;;;8.80;;
10550;SDS011;5324;50.684;3.862;2023-10-09T06:56:20;12.00;;;8.50;;
10550;SDS011;5324;50.684;3.862;2023-10-09T06:58:50;11.10;;;8.50;;
10550;SDS011;5324;50.684;3.862;2023-10-09T07:01:20;11.47;;;8.73;;
10550;SDS011;5324;50.684;3.862;2023-10-09T07:04:04;11.63;;;8.70;;
10550;SDS011;5324;50.684;3.862;2023-10-09T07:06:49;10.10;;;8.40;;
10550;SDS011;5324;50.684;3.862;2023-10-09T07:09:22;13.07;;;8.70;;
10550;SDS011;5324;50.684;3.862;2023-10-09T07:11:49;13.43;;;8.53;;
10550;SDS011;5324;50.684;3.862;2023-10-09T07:14:22;12.37;;;8.77;;
10550;SDS011;5324;50.684;3.862;2023-10-09T07:16:55;13.37;;;8.80;;
10550;SDS011;5324;50.684;3.862;2023-10-09T07:19:44;13.57;;;7.40;;
10550;SDS011;5324;50.684;3.862;2023-10-09T07:22:13;11.97;;;7.43;;
10550;SDS011;5324;50.684;3.862;2023-10-09T07:24:45;11.37;;;8.23;;
10550;SDS011;5324;50.684;3.862;2023-10-09T07:27:21;10.20;;;8.33;;
10550;SDS011;5324;50.684;3.862;2023-10-09T07:30:06;12.37;;;8.23;;
10550;SDS011;5324;50.684;3.862;2023-10-09T07:32:53;13.07;;;9.03;;
10550;SDS011;5324;50.684;3.862;2023-10-09T07:35:42;14.03;;;8.87;;
10550;SDS011;5324;50.684;3.862;2023-10-09T07:38:19;12.23;;;8.20;;
10550;SDS011;5324;50.684;3.862;2023-10-09T07:40:47;12.27;;;8.63;;
10550;SDS011;5324;50.684;3.862;2023-10-09T07:43:21;14.30;;;9.27;;
10550;SDS011;5324;50.684;3.862;2023-10-09T07:45:51;11.45;;;8.20;;
10550;SDS011;5324;50.684;3.862;2023-10-09T07:48:24;11.50;;;9.45;;
10550;SDS011;5324;50.684;3.862;2023-10-09T07:51:04;10.50;;;8.43;;
10550;SDS011;5324;50.684;3.862;2023-10-09T07:53:30;11.33;;;8.73;;
10550;SDS011;5324;50.684;3.862;2023-10-09T07:56:08;11.33;;;8.53;;
10550;SDS011;5324;50.684;3.862;2023-10-09T07:58:34;11.83;;;8.57;;
10550;SDS011;5324;50.684;3.862;2023-10-09T08:01:13;11.77;;;8.50;;
10550;SDS011;5324;50.684;3.862;2023-10-09T08:03:59;13.63;;;8.33;;
10550;SDS011;5324;50.684;3.862;2023-10-09T08:06:38;11.00;;;8.73;;
10550;SDS011;5324;50.684;3.862;2023-10-09T08:09:07;13.60;;;9.02;;
10550;SDS011;5324;50.684;3.862;2023-10-09T08:11:48;10.30;;;8.25;;
10550;SDS011;5324;50.684;3.862;2023-10-09T08:14:33;15.38;;;8.95;;
10550;SDS011;5324;50.684;3.862;2023-10-09T08:17:05;12.45;;;10.15;;
10550;SDS011;5324;50.684;3.862;2023-10-09T08:19:50;15.85;;;9.95;;
10550;SDS011;5324;50.684;3.862;2023-10-09T08:22:29;12.95;;;8.98;;
10550;SDS011;5324;50.684;3.862;2023-10-09T08:24:57;11.63;;;8.85;;
10550;SDS011;5324;50.684;3.862;2023-10-09T08:27:23;13.88;;;8.85;;
10550;SDS011;5324;50.684;3.862;2023-10-09T08:29:56;13.75;;;9.60;;
10550;SDS011;5324;50.684;3.862;2023-10-09T08:32:38;11.13;;;8.75;;
10550;SDS011;5324;50.684;3.862;2023-10-09T08:35:05;16.13;;;10.02;;
10550;SDS011;5324;50.684;3.862;2023-10-09T08:37:55;11.65;;;9.00;;
10550;SDS011;5324;50.684;3.862;2023-10-09T08:40:41;14.50;;;9.00;;
10550;SDS011;5324;50.684;3.862;2023-10-09T08:43:14;12.32;;;9.57;;
10550;SDS011;5324;50.684;3.862;2023-10-09T08:45:47;15.23;;;10.38;;
10550;SDS011;5324;50.684;3.862;2023-10-09T08:48:16;13.88;;;10.10;;
10550;SDS011;5324;50.684;3.862;2023-10-09T08:50:46;12.95;;;9.93;;
10550;SDS011;5324;50.684;3.862;2023-10-09T08:53:14;14.25;;;10.02;;
10550;SDS011;5324;50.684;3.862;2023-10-09T08:55:41;13.43;;;9.38;;
10550;SDS011;5324;50.684;3.862;2023-10-09T08:58:08;13.00;;;9.88;;
10550;SDS011;5324;50.684;3.862;2023-10-09T09:00:44;15.52;;;10.32;;
10550;SDS011;5324;50.684;3.862;2023-10-09T09:03:20;13.95;;;9.75;;
10550;SDS011;5324;50.684;3.862;2023-10-09T09:05:48;12.65;;;10.55;;
10550;SDS011;5324;50.684;3.862;2023-10-09T09:08:26;14.75;;;10.05;;
10550;SDS011;5324;50.684;3.862;2023-10-09T09:11:08;14.35;;;9.98;;
10550;SDS011;5324;50.684;3.862;2023-10-09T09:16:06;14.85;;;10.48;;
10550;SDS011;5324;50.684;3.862;2023-10-09T09:21:35;15.38;;;11.30;;
10550;SDS011;5324;50.684;3.862;2023-10-09T09:24:08;15.27;;;11.48;;
10550;SDS011;5324;50.684;3.862;2023-10-09T09:26:41;14.55;;;11.23;;
10550;SDS011;5324;50.684;3.862;2023-10-09T09:29:11;15.60;;;11.65;;
10550;SDS011;5324;50.684;3.862;2023-10-09T09:31:37;14.35;;;11.82;;
10550;SDS011;5324;50.684;3.862;2023-10-09T09:34:06;13.73;;;10.13;;
10550;SDS011;5324;50.684;3.862;2023-10-09T09:36:57;15.35;;;10.90;;
10550;SDS011;5324;50.684;3.862;2023-10-09T09:39:27;14.98;;;11.93;;
10550;SDS011;5324;50.684;3.862;2023-10-09T09:41:58;16.80;;;11.85;;
10550;SDS011;5324;50.684;3.862;2023-10-09T09:44:38;14.88;;;10.88;;
10550;SDS011;5324;50.684;3.862;2023-10-09T09:47:14;14.65;;;10.75;;
10550;SDS011;5324;50.684;3.862;2023-10-09T09:49:50;17.00;;;11.25;;
10550;SDS011;5324;50.684;3.862;2023-10-09T09:52:30;16.35;;;10.75;;
10550;SDS011;5324;50.684;3.862;2023-10-09T09:55:03;15.30;;;10.90;;
10550;SDS011;5324;50.684;3.862;2023-10-09T09:57:29;16.08;;;11.70;;
10550;SDS011;5324;50.684;3.862;2023-10-09T09:59:56;17.63;;;10.98;;
10550;SDS011;5324;50.684;3.862;2023-10-09T10:02:27;15.95;;;11.07;;
10550;SDS011;5324;50.684;3.862;2023-10-09T10:04:58;14.23;;;10.80;;
10550;SDS011;5324;50.684;3.862;2023-10-09T10:07:24;15.75;;;11.77;;
10550;SDS011;5324;50.684;3.862;2023-10-09T10:09:54;17.08;;;10.90;;
10550;SDS011;5324;50.684;3.862;2023-10-09T10:15:07;16.55;;;11.20;;
10550;SDS011;5324;50.684;3.862;2023-10-09T10:20:18;14.88;;;10.50;;
10550;SDS011;5324;50.684;3.862;2023-10-09T10:22:44;14.00;;;10.43;;
10550;SDS011;5324;50.684;3.862;2023-10-09T10:28:31;15.32;;;11.68;;
10550;SDS011;5324;50.684;3.862;2023-10-09T10:31:09;15.00;;;11.43;;
10550;SDS011;5324;50.684;3.862;2023-10-09T10:36:20;17.00;;;11.20;;
10550;SDS011;5324;50.684;3.862;2023-10-09T10:38:58;14.60;;;11.27;;
10550;SDS011;5324;50.684;3.862;2023-10-09T10:41:33;15.57;;;11.23;;
10550;SDS011;5324;50.684;3.862;2023-10-09T10:44:29;14.15;;;10.95;;
10550;SDS011;5324;50.684;3.862;2023-10-09T10:47:11;16.42;;;11.82;;
10550;SDS011;5324;50.684;3.862;2023-10-09T10:50:01;17.73;;;11.98;;
10550;SDS011;5324;50.684;3.862;2023-10-09T10:53:12;14.32;;;10.73;;
10550;SDS011;5324;50.684;3.862;2023-10-09T10:55:59;13.68;;;11.27;;
10550;SDS011;5324;50.684;3.862;2023-10-09T10:58:38;13.60;;;10.05;;
10550;SDS011;5324;50.684;3.862;2023-10-09T11:01:18;12.85;;;10.90;;
10550;SDS011;5324;50.684;3.862;2023-10-09T11:03:49;14.55;;;10.75;;
10550;SDS011;5324;50.684;3.862;2023-10-09T11:06:24;12.77;;;10.65;;
10550;SDS011;5324;50.684;3.862;2023-10-09T11:08:59;13.10;;;10.45;;
10550;SDS011;5324;50.684;3.862;2023-10-09T11:11:34;14.10;;;10.90;;
10550;SDS011;5324;50.684;3.862;2023-10-09T11:14:09;13.35;;;10.27;;
10550;SDS011;5324;50.684;3.862;2023-10-09T11:16:48;14.10;;;11.35;;
10550;SDS011;5324;50.684;3.862;2023-10-09T11:19:18;14.63;;;10.32;;
10550;SDS011;5324;50.684;3.862;2023-10-09T11:21:57;14.20;;;10.32;;
10550;SDS011;5324;50.684;3.862;2023-10-09T11:24:33;13.60;;;10.73;;
10550;SDS011;5324;50.684;3.862;2023-10-09T11:27:02;11.85;;;9.68;;
10550;SDS011;5324;50.684;3.862;2023-10-09T11:29:33;13.73;;;10.68;;
10550;SDS011;5324;50.684;3.862;2023-10-09T11:32:08;15.25;;;9.55;;
10550;SDS011;5324;50.684;3.862;2023-10-09T11:34:36;13.73;;;9.88;;
10550;SDS011;5324;50.684;3.862;2023-10-09T11:37:03;14.20;;;10.05;;
10550;SDS011;5324;50.684;3.862;2023-10-09T11:39:38;13.27;;;10.65;;
10550;SDS011;5324;50.684;3.862;2023-10-09T11:42:20;12.95;;;10.05;;
10550;SDS011;5324;50.684;3.862;2023-10-09T11:45:21;13.05;;;9.85;;
10550;SDS011;5324;50.684;3.862;2023-10-09T11:47:50;14.90;;;10.55;;
10550;SDS011;5324;50.684;3.862;2023-10-09T11:50:40;13.43;;;9.35;;
10550;SDS011;5324;50.684;3.862;2023-10-09T11:53:21;14.88;;;10.25;;
10550;SDS011;5324;50.684;3.862;2023-10-09T11:55:47;12.38;;;9.63;;
10550;SDS011;5324;50.684;3.862;2023-10-09T11:58:14;13.18;;;9.63;;
10550;SDS011;5324;50.684;3.862;2023-10-09T12:00:47;12.95;;;8.93;;
10550;SDS011;5324;50.684;3.862;2023-10-09T12:03:13;13.77;;;9.20;;
10550;SDS011;5324;50.684;3.862;2023-10-09T12:05:39;11.75;;;9.02;;
10550;SDS011;5324;50.684;3.862;2023-10-09T12:08:09;14.75;;;9.20;;
10550;SDS011;5324;50.684;3.862;2023-10-09T12:10:36;12.70;;;9.85;;
10550;SDS011;5324;50.684;3.862;2023-10-09T12:13:06;11.13;;;9.43;;
10550;SDS011;5324;50.684;3.862;2023-10-09T12:15:32;11.02;;;8.43;;
10550;SDS011;5324;50.684;3.862;2023-10-09T12:18:08;11.48;;;8.80;;
10550;SDS011;5324;50.684;3.862;2023-10-09T12:20:39;13.23;;;9.40;;
10550;SDS011;5324;50.684;3.862;2023-10-09T12:23:05;15.82;;;10.15;;
10550;SDS011;5324;50.684;3.862;2023-10-09T12:25:32;14.82;;;9.55;;
10550;SDS011;5324;50.684;3.862;2023-10-09T12:28:00;13.75;;;9.60;;
10550;SDS011;5324;50.684;3.862;2023-10-09T12:30:29;11.75;;;8.80;;
10550;SDS011;5324;50.684;3.862;2023-10-09T12:32:56;10.48;;;8.68;;
10550;SDS011;5324;50.684;3.862;2023-10-09T12:35:25;16.10;;;9.35;;
10550;SDS011;5324;50.684;3.862;2023-10-09T12:37:53;14.05;;;9.40;;
10550;SDS011;5324;50.684;3.862;2023-10-09T12:40:20;10.82;;;8.45;;
10550;SDS011;5324;50.684;3.862;2023-10-09T12:42:51;14.32;;;10.07;;
10550;SDS011;5324;50.684;3.862;2023-10-09T12:45:18;12.65;;;9.30;;
10550;SDS011;5324;50.684;3.862;2023-10-09T12:47:50;11.43;;;8.55;;
10550;SDS011;5324;50.684;3.862;2023-10-09T12:50:16;11.68;;;8.73;;
10550;SDS011;5324;50.684;3.862;2023-10-09T12:52:52;10.88;;;8.57;;
10550;SDS011;5324;50.684;3.862;2023-10-09T12:55:18;11.55;;;8.88;;
10550;SDS011;5324;50.684;3.862;2023-10-09T12:57:46;10.93;;;8.63;;
10550;SDS011;5324;50.684;3.862;2023-10-09T13:00:13;9.93;;;8.13;;
10550;SDS011;5324;50.684;3.862;2023-10-09T13:02:50;13.13;;;7.88;;
10550;SDS011;5324;50.684;3.862;2023-10-09T13:05:16;12.00;;;7.78;;
10550;SDS011;5324;50.684;3.862;2023-10-09T13:07:51;12.55;;;7.55;;
10550;SDS011;5324;50.684;3.862;2023-10-09T13:10:26;11.75;;;8.63;;
10550;SDS011;5324;50.684;3.862;2023-10-09T13:12:56;11.90;;;7.22;;
10550;SDS011;5324;50.684;3.862;2023-10-09T13:15:22;11.93;;;7.65;;
10550;SDS011;5324;50.684;3.862;2023-10-09T13:17:48;8.18;;;7.20;;
10550;SDS011;5324;50.684;3.862;2023-10-09T13:20:18;11.15;;;7.82;;
10550;SDS011;5324;50.684;3.862;2023-10-09T13:22:44;8.02;;;6.97;;
10550;SDS011;5324;50.684;3.862;2023-10-09T13:25:14;12.95;;;7.30;;
10550;SDS011;5324;50.684;3.862;2023-10-09T13:27:49;9.60;;;6.70;;
10550;SDS011;5324;50.684;3.862;2023-10-09T13:30:16;10.20;;;7.15;;
10550;SDS011;5324;50.684;3.862;2023-10-09T13:32:47;8.93;;;6.75;;
10550;SDS011;5324;50.684;3.862;2023-10-09T13:35:15;9.43;;;7.22;;
10550;SDS011;5324;50.684;3.862;2023-10-09T13:37:43;11.00;;;7.00;;
10550;SDS011;5324;50.684;3.862;2023-10-09T13:40:13;13.25;;;8.27;;
10550;SDS011;5324;50.684;3.862;2023-10-09T13:42:51;8.30;;;7.13;;
10550;SDS011;5324;50.684;3.862;2023-10-09T13:45:17;9.23;;;7.05;;
10550;SDS011;5324;50.684;3.862;2023-10-09T13:47:51;10.85;;;7.25;;
10550;SDS011;5324;50.684;3.862;2023-10-09T13:50:18;10.70;;;6.95;;
10550;SDS011;5324;50.684;3.862;2023-10-09T13:52:47;10.50;;;7.22;;
10550;SDS011;5324;50.684;3.862;2023-10-09T13:55:13;10.02;;;7.10;;
10550;SDS011;5324;50.684;3.862;2023-10-09T13:57:43;13.43;;;7.65;;
10550;SDS011;5324;50.684;3.862;2023-10-09T14:00:14;9.93;;;6.75;;
10550;SDS011;5324;50.684;3.862;2023-10-09T14:02:45;11.32;;;7.95;;
10550;SDS011;5324;50.684;3.862;2023-10-09T14:05:12;8.90;;;6.88;;
10550;SDS011;5324;50.684;3.862;2023-10-09T14:07:39;9.98;;;6.43;;
10550;SDS011;5324;50.684;3.862;2023-10-09T14:10:06;10.63;;;6.05;;
10550;SDS011;5324;50.684;3.862;2023-10-09T14:12:42;9.60;;;6.53;;
10550;SDS011;5324;50.684;3.862;2023-10-09T14:15:08;8.50;;;6.15;;
10550;SDS011;5324;50.684;3.862;2023-10-09T14:17:42;9.77;;;6.93;;
10550;SDS011;5324;50.684;3.862;2023-10-09T14:20:08;10.48;;;6.63;;
10550;SDS011;5324;50.684;3.862;2023-10-09T14:22:53;10.13;;;6.65;;
10550;SDS011;5324;50.684;3.862;2023-10-09T14:25:19;11.52;;;6.57;;
10550;SDS011;5324;50.684;3.862;2023-10-09T14:27:46;9.73;;;6.65;;
10550;SDS011;5324;50.684;3.862;2023-10-09T14:30:13;9.80;;;5.82;;
10550;SDS011;5324;50.684;3.862;2023-10-09T14:32:48;10.65;;;6.40;;
10550;SDS011;5324;50.684;3.862;2023-10-09T14:35:20;11.45;;;6.95;;
10550;SDS011;5324;50.684;3.862;2023-10-09T14:37:51;8.18;;;6.60;;
10550;SDS011;5324;50.684;3.862;2023-10-09T14:40:18;12.13;;;6.85;;
10550;SDS011;5324;50.684;3.862;2023-10-09T14:42:55;8.63;;;6.70;;
10550;SDS011;5324;50.684;3.862;2023-10-09T14:45:23;8.70;;;6.03;;
10550;SDS011;5324;50.684;3.862;2023-10-09T14:47:51;10.88;;;6.43;;
10550;SDS011;5324;50.684;3.862;2023-10-09T14:50:18;10.75;;;6.45;;
10550;SDS011;5324;50.684;3.862;2023-10-09T14:52:47;10.55;;;7.03;;
10550;SDS011;5324;50.684;3.862;2023-10-09T14:55:20;9.48;;;6.53;;
10550;SDS011;5324;50.684;3.862;2023-10-09T14:57:53;9.23;;;6.35;;
10550;SDS011;5324;50.684;3.862;2023-10-09T15:00:20;9.25;;;6.07;;
10550;SDS011;5324;50.684;3.862;2023-10-09T15:02:49;9.48;;;6.53;;
10550;SDS011;5324;50.684;3.862;2023-10-09T15:05:16;7.65;;;5.90;;
10550;SDS011;5324;50.684;3.862;2023-10-09T15:07:42;9.00;;;6.07;;
10550;SDS011;5324;50.684;3.862;2023-10-09T15:10:08;8.02;;;6.28;;
10550;SDS011;5324;50.684;3.862;2023-10-09T15:12:35;10.20;;;6.55;;
10550;SDS011;5324;50.684;3.862;2023-10-09T15:15:05;10.65;;;6.60;;
10550;SDS011;5324;50.684;3.862;2023-10-09T15:17:42;9.48;;;6.63;;
10550;SDS011;5324;50.684;3.862;2023-10-09T15:20:11;9.85;;;6.20;;
10550;SDS011;5324;50.684;3.862;2023-10-09T15:22:42;9.55;;;6.50;;
10550;SDS011;5324;50.684;3.862;2023-10-09T15:25:08;11.20;;;6.38;;
10550;SDS011;5324;50.684;3.862;2023-10-09T15:27:34;10.07;;;6.28;;
10550;SDS011;5324;50.684;3.862;2023-10-09T15:30:04;11.98;;;5.88;;
10550;SDS011;5324;50.684;3.862;2023-10-09T15:32:31;10.85;;;6.10;;
10550;SDS011;5324;50.684;3.862;2023-10-09T15:35:00;8.10;;;5.68;;
10550;SDS011;5324;50.684;3.862;2023-10-09T15:37:27;10.38;;;5.75;;
10550;SDS011;5324;50.684;3.862;2023-10-09T15:39:54;9.57;;;6.55;;
10550;SDS011;5324;50.684;3.862;2023-10-09T15:42:20;9.13;;;6.60;;
10550;SDS011;5324;50.684;3.862;2023-10-09T15:44:47;12.38;;;5.68;;
10550;SDS011;5324;50.684;3.862;2023-10-09T15:47:16;9.52;;;5.63;;